Terminal Aerodrome Forecast
Issued by NWS Shreveport, LA

Home | Current Version | Previous Version | Text Only | Print | Product List | Glossary On
Versions: 1 2 3 4 5 6 7 8 9 10 11 12 13
000
FTUS44 KSHV 162300 RRA
TAFGGG
TAF
KGGG 162341Z 1700/1724 08005KT P6SM SCT050 SCT150 BKN250
     FM170300 13003KT P6SM BKN250
     FM171600 17005KT P6SM FEW035 BKN250
     FM171800 17007KT P6SM SCT050 BKN150 BKN250=

USA.gov is the U.S. government's official web portal to all federal, state and local government web resources and services.